createdAt,value
2022-08-04T00:00:13.071Z,99.90
2022-08-04T00:02:56.499Z,99.90
2022-08-04T00:05:37.055Z,99.90
2022-08-04T00:08:16.678Z,99.90
2022-08-04T00:10:50.369Z,99.90
2022-08-04T00:13:25.113Z,99.90
2022-08-04T00:15:54.628Z,99.90
2022-08-04T00:18:27.947Z,99.90
2022-08-04T00:21:00.479Z,99.90
2022-08-04T00:24:10.598Z,99.90
2022-08-04T00:26:19.657Z,99.90
2022-08-04T00:28:49.909Z,99.90
2022-08-04T00:31:19.094Z,99.90
2022-08-04T00:34:07.462Z,99.90
2022-08-04T00:36:36.027Z,99.90
2022-08-04T00:39:04.411Z,99.90
2022-08-04T00:41:56.087Z,99.90
2022-08-04T00:44:34.269Z,99.90
2022-08-04T00:47:12.444Z,99.90
2022-08-04T00:50:19.996Z,99.90
2022-08-04T00:53:09.302Z,99.90
2022-08-04T00:56:06.495Z,99.90
2022-08-04T00:58:44.708Z,99.90
2022-08-04T01:01:37.688Z,99.90
2022-08-04T01:04:16.370Z,99.90
2022-08-04T01:07:08.372Z,99.90
2022-08-04T01:09:49.041Z,99.90
2022-08-04T01:12:34.032Z,99.90
2022-08-04T01:15:07.766Z,99.90
2022-08-04T01:17:49.922Z,99.90
2022-08-04T01:20:22.886Z,99.90
2022-08-04T01:23:33.772Z,99.90
2022-08-04T01:26:42.585Z,99.90
2022-08-04T01:29:23.827Z,99.90
2022-08-04T01:32:02.237Z,99.90
2022-08-04T01:34:32.753Z,99.90
2022-08-04T01:37:10.078Z,99.90
2022-08-04T01:39:50.743Z,99.90
2022-08-04T01:42:31.882Z,99.90
2022-08-04T01:45:04.031Z,99.90
2022-08-04T01:47:35.313Z,99.90
2022-08-04T01:50:07.349Z,99.90
2022-08-04T01:52:37.329Z,99.90
2022-08-04T01:55:09.467Z,99.90
2022-08-04T01:57:42.433Z,99.90
2022-08-04T02:00:14.332Z,99.90
2022-08-04T02:02:42.846Z,99.90
2022-08-04T02:05:12.460Z,99.90
2022-08-04T02:08:00.622Z,99.90
2022-08-04T02:10:31.627Z,99.90
2022-08-04T02:13:12.163Z,99.90
2022-08-04T02:15:49.050Z,99.90
2022-08-04T02:18:25.860Z,99.90
2022-08-04T02:20:59.583Z,99.90
2022-08-04T02:23:35.142Z,99.90
2022-08-04T02:26:05.106Z,99.90
2022-08-04T02:28:39.192Z,99.90
2022-08-04T02:31:20.076Z,99.90
2022-08-04T02:33:56.491Z,99.90
2022-08-04T02:36:31.800Z,99.90
2022-08-04T02:39:02.750Z,99.90
2022-08-04T02:41:32.499Z,99.90
2022-08-04T02:44:02.588Z,99.90
2022-08-04T02:46:34.659Z,99.90
2022-08-04T02:49:04.864Z,99.90
2022-08-04T02:51:36.208Z,99.90
2022-08-04T02:54:06.840Z,99.90
2022-08-04T02:56:37.453Z,99.90
2022-08-04T02:59:08.953Z,99.90
2022-08-04T03:01:56.523Z,99.90
2022-08-04T03:04:44.290Z,99.90
2022-08-04T03:07:44.463Z,99.90
2022-08-04T03:10:38.742Z,99.90
2022-08-04T03:13:30.143Z,99.90
2022-08-04T03:16:38.905Z,99.90
2022-08-04T03:19:36.808Z,99.90
2022-08-04T03:22:30.584Z,99.90
2022-08-04T03:25:32.396Z,99.90
2022-08-04T03:28:28.265Z,99.90
2022-08-04T03:31:18.873Z,99.90
2022-08-04T03:34:06.045Z,99.90
2022-08-04T03:37:03.012Z,99.90
2022-08-04T03:40:24.548Z,99.90
2022-08-04T03:43:57.653Z,99.90
2022-08-04T03:47:11.369Z,99.90
2022-08-04T03:50:09.893Z,99.90
2022-08-04T03:53:11.828Z,99.90
2022-08-04T03:56:12.318Z,99.90
2022-08-04T03:59:25.062Z,99.90
2022-08-04T04:02:21.964Z,99.90
2022-08-04T04:05:24.539Z,99.90
2022-08-04T04:08:27.818Z,99.90
2022-08-04T04:11:20.968Z,99.90
2022-08-04T04:14:17.067Z,99.90
2022-08-04T04:17:09.922Z,99.90
2022-08-04T04:20:15.002Z,99.90
2022-08-04T04:23:01.594Z,99.90
2022-08-04T04:25:40.932Z,99.90
2022-08-04T04:28:44.661Z,99.90
2022-08-04T04:31:39.336Z,99.90
2022-08-04T04:34:17.932Z,99.90
2022-08-04T04:36:56.859Z,99.90
2022-08-04T04:39:33.768Z,99.90
2022-08-04T04:42:24.847Z,99.90
2022-08-04T04:45:06.794Z,99.90
2022-08-04T04:48:08.052Z,99.90
2022-08-04T04:50:48.587Z,99.90
2022-08-04T04:53:25.379Z,99.90
2022-08-04T04:56:04.688Z,99.90
2022-08-04T04:58:37.025Z,99.90
2022-08-04T05:01:24.167Z,99.90
2022-08-04T05:04:12.919Z,99.90
2022-08-04T05:06:55.480Z,99.90
2022-08-04T05:09:33.830Z,99.90
2022-08-04T05:14:31.988Z,99.90
2022-08-04T05:15:36.835Z,99.90
2022-08-04T05:18:08.422Z,99.90
2022-08-04T05:20:40.345Z,99.90
2022-08-04T05:23:14.946Z,99.90
2022-08-04T05:28:35.184Z,99.90
2022-08-04T05:31:12.115Z,99.90
2022-08-04T05:33:44.574Z,99.90
2022-08-04T05:36:32.660Z,99.90
2022-08-04T05:39:08.529Z,99.90
2022-08-04T05:41:45.276Z,99.90
2022-08-04T05:44:16.271Z,99.90
2022-08-04T05:46:54.089Z,99.90
2022-08-04T05:49:24.270Z,99.90
2022-08-04T05:51:53.704Z,99.90
2022-08-04T05:54:22.939Z,99.90
2022-08-04T05:56:52.049Z,99.90
2022-08-04T05:59:21.775Z,99.90
2022-08-04T06:01:54.927Z,99.90
2022-08-04T06:04:25.976Z,99.90
2022-08-04T06:06:55.356Z,99.90
2022-08-04T06:09:23.440Z,99.90
2022-08-04T06:12:00.730Z,99.90
2022-08-04T06:14:37.036Z,99.90
2022-08-04T06:18:33.429Z,99.90
2022-08-04T06:20:19.305Z,99.90
2022-08-04T06:22:48.962Z,99.90
2022-08-04T06:25:20.624Z,99.90
2022-08-04T06:27:50.449Z,99.90
2022-08-04T06:30:20.157Z,99.90
2022-08-04T06:33:03.458Z,99.90
2022-08-04T06:35:34.338Z,99.90
2022-08-04T06:38:03.826Z,99.90
2022-08-04T06:40:34.010Z,99.90
2022-08-04T06:43:03.241Z,99.90
2022-08-04T06:45:32.136Z,99.90
2022-08-04T06:48:02.031Z,99.90
2022-08-04T06:51:30.580Z,99.90
2022-08-04T06:53:20.489Z,98.70
2022-08-04T06:55:50.234Z,92.70
2022-08-04T06:58:20.438Z,94.80
2022-08-04T07:00:49.609Z,96.00
2022-08-04T07:03:23.047Z,97.20
2022-08-04T07:05:53.066Z,92.60
2022-08-04T07:08:22.073Z,94.70
2022-08-04T07:10:50.348Z,91.90
2022-08-04T07:13:20.185Z,91.30
2022-08-04T07:15:49.545Z,90.60
2022-08-04T07:18:18.012Z,84.90
2022-08-04T07:20:48.028Z,88.50
2022-08-04T07:23:19.728Z,88.60
2022-08-04T07:26:11.210Z,86.30
2022-08-04T07:28:41.787Z,87.30
2022-08-04T07:31:33.326Z,90.50
2022-08-04T07:34:17.323Z,85.60
2022-08-04T07:36:55.449Z,86.00
2022-08-04T07:39:27.424Z,88.90
2022-08-04T07:41:57.494Z,79.50
2022-08-04T07:44:25.941Z,81.80
2022-08-04T07:46:54.469Z,75.70
2022-08-04T07:49:56.301Z,79.90
2022-08-04T07:52:12.555Z,79.30
2022-08-04T07:54:41.380Z,77.10
2022-08-04T07:57:09.556Z,78.70
2022-08-04T07:59:50.362Z,72.80
2022-08-04T08:02:21.471Z,71.70
2022-08-04T08:04:50.247Z,71.50
2022-08-04T08:07:20.867Z,69.00
2022-08-04T08:09:49.287Z,70.90
2022-08-04T08:12:37.648Z,68.40
2022-08-04T08:15:06.702Z,68.00
2022-08-04T08:17:57.876Z,66.60
2022-08-04T08:20:29.209Z,67.30
2022-08-04T08:22:59.737Z,66.90
2022-08-04T08:25:28.025Z,63.40
2022-08-04T08:27:56.826Z,66.90
2022-08-04T08:30:31.736Z,65.30
2022-08-04T08:33:02.563Z,63.80
2022-08-04T08:35:39.782Z,62.40
2022-08-04T08:38:34.614Z,61.70
2022-08-04T08:41:22.264Z,60.40
2022-08-04T08:44:07.638Z,60.80
2022-08-04T08:46:52.379Z,59.40
2022-08-04T08:50:04.007Z,59.80
2022-08-04T08:53:01.752Z,59.70
2022-08-04T08:55:41.773Z,60.80
2022-08-04T08:58:41.468Z,59.50
2022-08-04T09:01:24.223Z,59.70
2022-08-04T09:04:23.530Z,58.00
2022-08-04T09:07:24.593Z,59.00
2022-08-04T09:10:07.388Z,58.80
2022-08-04T09:12:46.371Z,59.60
2022-08-04T09:15:16.913Z,56.80
2022-08-04T09:17:51.097Z,54.50
2022-08-04T09:20:26.684Z,53.70
2022-08-04T09:23:07.999Z,54.30
2022-08-04T09:25:42.123Z,53.40
2022-08-04T09:28:43.719Z,51.90
2022-08-04T09:31:14.507Z,51.80
2022-08-04T09:33:50.338Z,53.50
2022-08-04T09:36:33.129Z,51.80
2022-08-04T09:39:10.710Z,52.20
2022-08-04T09:41:49.332Z,50.10
2022-08-04T09:44:50.228Z,50.10
2022-08-04T09:47:25.975Z,50.00
2022-08-04T09:50:17.584Z,51.70
2022-08-04T09:52:51.206Z,48.60
2022-08-04T09:55:32.218Z,50.10
2022-08-04T09:58:06.677Z,48.60
2022-08-04T10:00:45.101Z,50.10
2022-08-04T10:03:19.903Z,50.30
2022-08-04T10:06:01.936Z,50.40
2022-08-04T10:08:45.358Z,50.90
2022-08-04T10:11:19.796Z,50.50
2022-08-04T10:13:54.618Z,50.30
2022-08-04T10:16:39.357Z,49.40
2022-08-04T10:19:19.638Z,52.30
2022-08-04T10:22:27.064Z,50.80
2022-08-04T10:24:57.157Z,51.90
2022-08-04T10:27:31.540Z,51.70
2022-08-04T10:30:04.265Z,51.50
2022-08-04T10:32:43.114Z,51.10
2022-08-04T10:35:15.146Z,51.60
2022-08-04T10:38:01.155Z,50.70
2022-08-04T10:40:37.750Z,51.60
2022-08-04T10:43:22.674Z,50.00
2022-08-04T10:45:57.945Z,50.70
2022-08-04T10:48:37.528Z,51.70
2022-08-04T10:51:20.058Z,49.60
2022-08-04T10:53:54.038Z,49.50
2022-08-04T10:56:30.855Z,50.00
2022-08-04T10:59:03.423Z,50.30
2022-08-04T11:01:50.644Z,49.30
2022-08-04T11:04:29.222Z,49.00
2022-08-04T11:06:59.510Z,49.60
2022-08-04T11:09:29.992Z,50.30
2022-08-04T11:12:04.764Z,50.30
2022-08-04T11:14:38.916Z,49.10
2022-08-04T11:17:12.391Z,49.10
2022-08-04T11:19:53.649Z,47.00
2022-08-04T11:22:27.232Z,47.20
2022-08-04T11:25:01.232Z,47.60
2022-08-04T11:27:36.853Z,47.60
2022-08-04T11:30:07.284Z,49.20
2022-08-04T11:32:41.046Z,47.20
2022-08-04T11:35:17.511Z,46.50
2022-08-04T11:37:50.659Z,46.80
2022-08-04T11:40:25.617Z,46.60
2022-08-04T11:42:57.860Z,46.50
2022-08-04T11:45:32.486Z,45.90
2022-08-04T11:48:05.736Z,47.00
2022-08-04T11:50:41.757Z,46.80
2022-08-04T11:53:15.688Z,46.60
2022-08-04T11:56:07.077Z,47.10
2022-08-04T11:58:33.548Z,47.50
2022-08-04T12:01:09.890Z,46.30
2022-08-04T12:04:03.757Z,46.70
2022-08-04T12:06:40.226Z,46.50
2022-08-04T12:09:23.788Z,44.60
2022-08-04T12:12:01.504Z,43.00
2022-08-04T12:14:44.411Z,43.30
2022-08-04T12:17:17.165Z,43.30
2022-08-04T12:20:04.213Z,44.00
2022-08-04T12:22:49.103Z,46.20
2022-08-04T12:25:22.749Z,44.20
2022-08-04T12:27:56.493Z,44.00
2022-08-04T12:30:57.733Z,43.50
2022-08-04T12:33:23.210Z,43.80
2022-08-04T12:36:21.456Z,43.00
2022-08-04T12:39:04.261Z,42.70
2022-08-04T12:41:39.625Z,43.30
2022-08-04T12:44:37.414Z,41.80
2022-08-04T12:47:27.842Z,41.60
2022-08-04T12:50:00.130Z,42.60
2022-08-04T12:53:01.016Z,41.10
2022-08-04T12:55:23.916Z,42.90
2022-08-04T12:57:54.743Z,41.40
2022-08-04T13:00:31.336Z,41.00
2022-08-04T13:03:09.873Z,39.30
2022-08-04T13:05:40.883Z,39.10
2022-08-04T13:08:11.250Z,37.80
2022-08-04T13:10:43.457Z,37.60
2022-08-04T13:13:18.005Z,38.70
2022-08-04T13:15:57.621Z,37.90
2022-08-04T13:18:30.445Z,38.80
2022-08-04T13:21:20.838Z,39.10
2022-08-04T13:24:19.737Z,39.10
2022-08-04T13:26:55.160Z,37.90
2022-08-04T13:29:58.099Z,38.50
2022-08-04T13:32:18.633Z,38.10
2022-08-04T13:34:49.594Z,39.40
2022-08-04T13:37:23.223Z,36.90
2022-08-04T13:39:55.177Z,37.00
2022-08-04T13:42:27.012Z,37.00
2022-08-04T13:44:58.115Z,37.10
2022-08-04T13:47:30.163Z,38.60
2022-08-04T13:50:12.155Z,37.40
2022-08-04T13:52:42.085Z,35.70
2022-08-04T13:55:19.113Z,36.80
2022-08-04T13:57:52.258Z,36.60
2022-08-04T14:00:30.241Z,37.00
2022-08-04T14:03:03.326Z,36.10
2022-08-04T14:05:58.877Z,36.10
2022-08-04T14:08:26.464Z,36.30
2022-08-04T14:10:58.267Z,39.00
2022-08-04T14:13:41.039Z,37.20
2022-08-04T14:16:21.222Z,35.60
2022-08-04T14:18:58.303Z,36.30
2022-08-04T14:21:26.777Z,35.50
2022-08-04T14:23:56.537Z,36.40
2022-08-04T14:26:31.374Z,35.90
2022-08-04T14:29:27.345Z,36.60
2022-08-04T14:32:04.402Z,37.50
2022-08-04T14:34:41.550Z,36.30
2022-08-04T14:37:16.762Z,38.00
2022-08-04T14:40:18.744Z,38.00
2022-08-04T14:42:59.010Z,38.40
2022-08-04T14:45:34.022Z,37.70
2022-08-04T14:48:03.266Z,38.60
2022-08-04T14:50:37.130Z,39.40
2022-08-04T14:53:07.426Z,37.70
2022-08-04T14:55:35.838Z,37.90
2022-08-04T14:58:36.761Z,37.00
2022-08-04T15:00:56.825Z,38.70
2022-08-04T15:03:25.783Z,38.20
2022-08-04T15:06:00.857Z,38.30
2022-08-04T15:08:34.574Z,39.20
2022-08-04T15:11:03.684Z,38.20
2022-08-04T15:13:33.448Z,39.40
2022-08-04T15:16:06.678Z,37.90
2022-08-04T15:18:39.076Z,38.30
2022-08-04T15:21:09.486Z,38.90
2022-08-04T15:23:39.193Z,40.00
2022-08-04T15:26:13.189Z,39.20
2022-08-04T15:28:47.228Z,39.30
2022-08-04T15:32:04.436Z,38.30
2022-08-04T15:34:07.963Z,39.20
2022-08-04T15:36:56.854Z,39.40
2022-08-04T15:39:39.300Z,39.90
2022-08-04T15:42:20.858Z,39.50
2022-08-04T15:45:21.453Z,38.50
2022-08-04T15:48:33.996Z,39.80
2022-08-04T15:51:07.098Z,39.60
2022-08-04T15:54:21.163Z,38.80
2022-08-04T15:57:01.543Z,39.80
2022-08-04T16:00:00.505Z,40.50
2022-08-04T16:02:49.487Z,38.70
2022-08-04T16:05:39.615Z,40.30
2022-08-04T16:08:27.800Z,40.40
2022-08-04T16:10:55.836Z,41.00
2022-08-04T16:13:25.089Z,40.60
2022-08-04T16:15:55.457Z,39.20
2022-08-04T16:18:43.621Z,40.20
2022-08-04T16:21:23.923Z,40.40
2022-08-04T16:24:10.720Z,41.90
2022-08-04T16:26:54.821Z,42.70
2022-08-04T16:29:42.795Z,42.50
2022-08-04T16:32:19.262Z,43.80
2022-08-04T16:34:55.450Z,44.20
2022-08-04T16:37:30.453Z,42.10
2022-08-04T16:40:36.604Z,42.60
2022-08-04T16:43:08.991Z,41.80
2022-08-04T16:45:48.541Z,43.10
2022-08-04T16:48:17.906Z,42.50
2022-08-04T16:51:05.851Z,42.80
2022-08-04T16:54:02.623Z,45.00
2022-08-04T16:56:35.417Z,42.30
2022-08-04T16:59:09.110Z,41.40
2022-08-04T17:01:37.826Z,42.20
2022-08-04T17:04:06.988Z,41.50
2022-08-04T17:06:37.538Z,43.00
2022-08-04T17:09:08.305Z,42.40
2022-08-04T17:11:38.020Z,43.00
2022-08-04T17:14:06.686Z,42.40
2022-08-04T17:16:37.035Z,42.60
2022-08-04T17:19:06.478Z,43.40
2022-08-04T17:21:38.003Z,43.60
2022-08-04T17:24:15.998Z,43.80
2022-08-04T17:26:51.962Z,42.40
2022-08-04T17:29:43.125Z,43.40
2022-08-04T17:32:18.778Z,43.70
2022-08-04T17:34:51.084Z,45.80
2022-08-04T17:37:38.395Z,48.30
2022-08-04T17:40:10.664Z,45.10
2022-08-04T17:42:41.506Z,44.70
2022-08-04T17:48:02.952Z,47.20
2022-08-04T17:50:35.671Z,49.10
2022-08-04T17:53:12.055Z,49.80
2022-08-04T17:55:46.906Z,50.90
2022-08-04T17:58:20.903Z,52.10
2022-08-04T18:01:16.684Z,53.40
2022-08-04T18:03:51.577Z,54.40
2022-08-04T18:06:21.994Z,56.10
2022-08-04T18:08:57.518Z,56.70
2022-08-04T18:11:29.834Z,56.90
2022-08-04T18:14:10.899Z,57.70
2022-08-04T18:16:46.260Z,58.20
2022-08-04T18:19:18.862Z,58.60
2022-08-04T18:21:59.745Z,58.90
2022-08-04T18:24:35.708Z,59.70
2022-08-04T18:27:20.485Z,60.70
2022-08-04T18:29:56.453Z,61.10
2022-08-04T18:32:44.006Z,61.50
2022-08-04T18:36:31.373Z,61.70
2022-08-04T18:38:22.329Z,63.20
2022-08-04T18:40:53.581Z,63.40
2022-08-04T18:43:28.005Z,63.80
2022-08-04T18:45:59.585Z,65.00
2022-08-04T18:48:35.968Z,65.60
2022-08-04T18:51:22.423Z,66.10
2022-08-04T18:53:58.608Z,66.70
2022-08-04T18:56:29.595Z,67.20
2022-08-04T18:58:59.821Z,67.40
2022-08-04T19:01:29.600Z,67.70
2022-08-04T19:04:00.110Z,67.90
2022-08-04T19:06:28.296Z,68.40
2022-08-04T19:08:58.270Z,69.40
2022-08-04T19:11:53.363Z,70.20
2022-08-04T19:14:14.432Z,71.30
2022-08-04T19:16:45.669Z,72.20
2022-08-04T19:19:17.928Z,72.80
2022-08-04T19:22:01.590Z,73.80
2022-08-04T19:24:34.553Z,74.80
2022-08-04T19:27:07.599Z,75.10
2022-08-04T19:29:41.192Z,75.70
2022-08-04T19:32:14.988Z,75.60
2022-08-04T19:34:47.451Z,75.30
2022-08-04T19:37:57.097Z,75.70
2022-08-04T19:40:06.825Z,76.50
2022-08-04T19:42:37.813Z,76.60
2022-08-04T19:45:06.951Z,79.10
2022-08-04T19:48:17.189Z,79.50
2022-08-04T19:50:24.814Z,79.70
2022-08-04T19:52:53.249Z,79.60
2022-08-04T19:55:22.978Z,79.70
2022-08-04T19:58:08.276Z,79.70
2022-08-04T20:00:37.631Z,81.30
2022-08-04T20:03:11.433Z,81.50
2022-08-04T20:05:53.290Z,81.20
2022-08-04T20:08:23.705Z,81.20
2022-08-04T20:10:52.704Z,80.00
2022-08-04T20:13:25.196Z,80.00
2022-08-04T20:15:59.152Z,79.60
2022-08-04T20:18:54.621Z,80.00
2022-08-04T20:21:24.251Z,80.00
2022-08-04T20:24:38.679Z,79.80
2022-08-04T20:26:53.510Z,79.80
2022-08-04T20:29:40.144Z,80.80
2022-08-04T20:32:09.695Z,80.80
2022-08-04T20:34:38.014Z,81.40
2022-08-04T20:37:10.569Z,82.30
2022-08-04T20:39:39.280Z,83.20
2022-08-04T20:42:07.843Z,84.70
2022-08-04T20:44:42.353Z,84.70
2022-08-04T20:47:14.392Z,83.60
2022-08-04T20:49:42.647Z,82.70
2022-08-04T20:52:20.126Z,76.60
2022-08-04T20:54:49.286Z,76.50
2022-08-04T20:57:48.199Z,74.80
2022-08-04T21:00:13.624Z,75.10
2022-08-04T21:02:41.741Z,77.60
2022-08-04T21:05:12.602Z,77.30
2022-08-04T21:07:44.048Z,77.80
2022-08-04T21:10:17.183Z,78.70
2022-08-04T21:12:50.087Z,80.80
2022-08-04T21:15:25.016Z,81.30
2022-08-04T21:17:57.600Z,81.40
2022-08-04T21:20:28.660Z,82.00
2022-08-04T21:22:59.850Z,82.50
2022-08-04T21:25:30.790Z,82.10
2022-08-04T21:28:04.397Z,82.90
2022-08-04T21:30:54.764Z,83.60
2022-08-04T21:33:49.018Z,84.40
2022-08-04T21:36:13.669Z,84.40
2022-08-04T21:41:32.658Z,86.30
2022-08-04T21:44:00.716Z,86.70
2022-08-04T21:46:31.730Z,87.80
2022-08-04T21:48:59.825Z,87.30
2022-08-04T21:51:59.890Z,87.70
2022-08-04T21:54:18.353Z,87.20
2022-08-04T21:56:51.384Z,88.00
2022-08-04T21:59:23.280Z,89.80
2022-08-04T22:01:56.503Z,89.70
2022-08-04T22:04:24.594Z,90.60
2022-08-04T22:06:52.817Z,90.60
2022-08-04T22:09:22.706Z,90.60
2022-08-04T22:11:51.930Z,91.20
2022-08-04T22:14:29.427Z,91.00
2022-08-04T22:17:02.597Z,91.30
2022-08-04T22:19:50.135Z,92.10
2022-08-04T22:22:24.381Z,91.90
2022-08-04T22:24:58.381Z,92.50
2022-08-04T22:27:47.689Z,92.80
2022-08-04T22:30:24.112Z,93.20
2022-08-04T22:32:52.533Z,93.50
2022-08-04T22:35:36.190Z,94.00
2022-08-04T22:38:22.350Z,94.30
2022-08-04T22:41:00.126Z,94.80
2022-08-04T22:43:31.933Z,95.40
2022-08-04T22:46:03.864Z,95.90
2022-08-04T22:48:33.836Z,96.30
2022-08-04T22:51:02.631Z,96.80
2022-08-04T22:53:31.528Z,98.30
2022-08-04T22:56:10.134Z,98.80
2022-08-04T22:58:40.330Z,99.90
2022-08-04T23:01:09.219Z,99.90
2022-08-04T23:03:38.635Z,99.90
2022-08-04T23:06:10.788Z,99.90
2022-08-04T23:08:43.096Z,99.90
2022-08-04T23:11:15.955Z,99.90
2022-08-04T23:13:43.980Z,99.90
2022-08-04T23:16:12.411Z,99.90
2022-08-04T23:18:41.994Z,99.90
2022-08-04T23:21:11.502Z,99.90
2022-08-04T23:23:47.714Z,99.90
2022-08-04T23:26:29.765Z,99.90
